Felker Army Air Field Fort Eustis US
ICAO: KFAF
IATA: FAF
Category: Medium
Scheduled Services: No

Elevation: 12 ft
TransAlt. 18000 ft.

Airport Communications:
NORFOLK APP/DEP:125.7
CTAF:126.3
GND:121.35
BASE OPS:134.1
PMSV METRO:134.1
TWR:126.3

KFAF Zoom In..

Runways:

(A) RW 14 length 3025 ft width 75 ft
---- / hdg 139

(B) RW 32 length 3025 ft width 75 ft
---- / hdg 319

Location; KFAF
Day. 22 / Time. 23.56 Zulu
* Altimeter: 30.06
* Temperature: 14° c. 57.2°f.
* Wind from: 160° Speed 08 kn.
Dewpoint: 07° c.
Visibility: 10 Statute Miles.
Clouds: Clear (automated report).

KFAF 222356Z AUTO 16008KT 10SM CLR 14/07 A3006 RMK AO2 SLP183 T01350066 10186 20135 55005 $


Wind From 160°
Speed 08 kn.

YouTube Music Video
 
jpsmedia.com for Web Design  worldairports.se 2018   terms of use